Lianping, China
Current Conditions -  °F | °C
As of 4:00 AM on Monday 26 Jan 2015 (Local Time) from ZGGG Reporting Station
Haze Haze  
Wind Chill: 61°   Ceiling: 2000
Heat Index: 61°   Visibility: 2.5mi
Dew Point: 59°   Wind: 2mph
Humidity: 94%   Direction: 60°ENE
Pressure: 30.06"   Gusts: NA
Location:  24.37°N, 114.48°E
Report Text: ZGGG 252000Z 06001MPS 4000 BR OVC020 16/15 Q1018 BECMGTL21152500 BR
Loading
Personal Weather Stations






























Interactive Weather Map New forecast layout! Learn more

10-Day Weather Forecast

Advertisements
Track Severe Weather on mobile